createdAt,value
2023-03-11T00:00:30.591Z,96.83
2023-03-11T00:01:30.573Z,96.83
2023-03-11T00:02:30.558Z,96.94
2023-03-11T00:03:30.589Z,96.83
2023-03-11T00:04:30.541Z,96.98
2023-03-11T00:05:30.556Z,96.94
2023-03-11T00:06:30.515Z,96.98
2023-03-11T00:07:30.545Z,97.09
2023-03-11T00:08:30.551Z,97.09
2023-03-11T00:09:30.484Z,96.88
2023-03-11T00:10:30.496Z,97.04
2023-03-11T00:11:30.464Z,96.94
2023-03-11T00:12:30.455Z,97.09
2023-03-11T00:13:30.459Z,96.83
2023-03-11T00:14:30.433Z,97.04
2023-03-11T00:15:30.432Z,96.98
2023-03-11T00:16:30.475Z,96.98
2023-03-11T00:17:30.400Z,96.94
2023-03-11T00:18:30.404Z,96.88
2023-03-11T00:19:30.403Z,96.98
2023-03-11T00:20:30.368Z,97.30
2023-03-11T00:21:30.356Z,97.19
2023-03-11T00:22:30.347Z,96.78
2023-03-11T00:23:30.355Z,97.09
2023-03-11T00:24:30.440Z,96.98
2023-03-11T00:25:30.322Z,95.84
2023-03-11T00:26:30.526Z,97.30
2023-03-11T00:27:30.286Z,96.15
2023-03-11T00:28:31.727Z,96.04
2023-03-11T00:29:30.267Z,96.36
2023-03-11T00:30:30.321Z,96.36
2023-03-11T00:31:30.432Z,96.67
2023-03-11T00:32:30.257Z,96.04
2023-03-11T00:33:30.513Z,96.04
2023-03-11T00:34:30.213Z,95.63
2023-03-11T00:35:30.418Z,96.04
2023-03-11T00:36:30.192Z,96.09
2023-03-11T00:37:30.176Z,95.99
2023-03-11T00:38:30.200Z,97.03
2023-03-11T00:39:30.180Z,95.67
2023-03-11T00:40:30.149Z,96.47
2023-03-11T00:41:30.138Z,96.51
2023-03-11T00:42:30.126Z,95.99
2023-03-11T00:43:30.116Z,97.13
2023-03-11T00:44:30.119Z,96.92
2023-03-11T00:45:30.104Z,97.34
2023-03-11T00:46:30.176Z,97.34
2023-03-11T00:47:30.073Z,97.65
2023-03-11T00:48:30.066Z,97.13
2023-03-11T00:49:30.061Z,97.03
2023-03-11T00:50:30.075Z,96.92
2023-03-11T00:51:31.556Z,97.34
2023-03-11T00:52:30.065Z,96.82
2023-03-11T00:53:30.046Z,97.17
2023-03-11T00:54:30.004Z,97.70
2023-03-11T00:55:29.987Z,97.91
2023-03-11T00:56:30.017Z,97.91
2023-03-11T00:57:29.966Z,98.43
2023-03-11T00:58:29.950Z,98.32
2023-03-11T00:59:29.973Z,98.74
2023-03-11T01:00:29.932Z,98.94
2023-03-11T01:01:29.966Z,99.41
2023-03-11T01:02:29.903Z,99.99
2023-03-11T01:03:29.897Z,99.67
2023-03-11T01:04:29.963Z,99.77
2023-03-11T01:05:29.902Z,99.41
2023-03-11T01:06:39.242Z,99.77
2023-03-11T01:07:30.871Z,99.51
2023-03-11T01:08:29.851Z,99.99
2023-03-11T01:09:29.844Z,99.99
2023-03-11T01:10:29.819Z,99.99
2023-03-11T01:11:29.838Z,99.99
2023-03-11T01:12:29.795Z,99.99
2023-03-11T01:13:29.790Z,99.99
2023-03-11T01:14:29.807Z,99.99
2023-03-11T01:15:29.770Z,99.99
2023-03-11T01:16:29.748Z,99.99
2023-03-11T01:17:29.741Z,99.99
2023-03-11T01:18:29.731Z,99.99
2023-03-11T01:19:29.739Z,99.99
2023-03-11T01:20:29.714Z,99.99
2023-03-11T01:21:29.695Z,99.99
2023-03-11T01:22:29.686Z,99.99
2023-03-11T01:23:29.712Z,99.99
2023-03-11T01:24:29.667Z,99.99
2023-03-11T01:25:29.663Z,99.99
2023-03-11T01:26:29.642Z,99.99
2023-03-11T01:27:29.649Z,99.99
2023-03-11T01:28:29.690Z,99.99
2023-03-11T01:29:29.614Z,99.99
2023-03-11T01:30:29.605Z,99.99
2023-03-11T01:31:29.676Z,99.99
2023-03-11T01:32:29.602Z,99.99
2023-03-11T01:33:29.578Z,99.99
2023-03-11T01:34:29.571Z,99.99
2023-03-11T01:35:30.514Z,99.99
2023-03-11T01:36:29.555Z,99.99
2023-03-11T01:37:29.559Z,99.99
2023-03-11T01:38:29.516Z,99.99
2023-03-11T01:39:29.533Z,99.99
2023-03-11T01:40:29.486Z,99.99
2023-03-11T01:41:29.482Z,99.99
2023-03-11T01:42:29.466Z,99.99
2023-03-11T01:43:29.477Z,99.99
2023-03-11T01:44:29.443Z,99.99
2023-03-11T01:45:29.434Z,99.99
2023-03-11T01:46:29.479Z,99.99
2023-03-11T01:47:29.519Z,99.99
2023-03-11T01:48:29.427Z,99.99
2023-03-11T01:49:29.454Z,99.99
2023-03-11T01:50:29.376Z,99.99
2023-03-11T01:51:29.378Z,99.99
2023-03-11T01:52:29.372Z,99.99
2023-03-11T01:53:29.344Z,99.99
2023-03-11T01:54:29.351Z,99.99
2023-03-11T01:55:29.337Z,99.99
2023-03-11T01:56:29.330Z,99.99
2023-03-11T01:57:29.313Z,99.99
2023-03-11T01:58:29.312Z,99.99
2023-03-11T01:59:29.298Z,99.99
2023-03-11T02:00:29.269Z,99.99
2023-03-11T02:01:29.322Z,99.99
2023-03-11T02:02:29.303Z,99.99
2023-03-11T02:03:29.237Z,99.99
2023-03-11T02:04:29.240Z,99.99
2023-03-11T02:05:29.226Z,99.99
2023-03-11T02:06:29.247Z,99.99
2023-03-11T02:07:29.196Z,99.99
2023-03-11T02:08:29.185Z,99.99
2023-03-11T02:09:29.169Z,99.99
2023-03-11T02:10:29.190Z,99.99
2023-03-11T02:11:29.175Z,99.99
2023-03-11T02:12:29.144Z,99.99
2023-03-11T02:13:29.128Z,99.99
2023-03-11T02:14:29.120Z,99.99
2023-03-11T02:15:29.113Z,99.99
2023-03-11T02:16:29.221Z,99.99
2023-03-11T02:17:29.095Z,99.99
2023-03-11T02:18:29.076Z,99.99
2023-03-11T02:19:29.082Z,99.99
2023-03-11T02:20:29.228Z,99.99
2023-03-11T02:21:29.055Z,99.99
2023-03-11T02:22:29.079Z,99.99
2023-03-11T02:23:29.047Z,99.99
2023-03-11T02:24:29.019Z,99.99
2023-03-11T02:25:29.041Z,99.99
2023-03-11T02:26:29.000Z,99.99
2023-03-11T02:27:29.007Z,99.99
2023-03-11T02:28:28.970Z,99.99
2023-03-11T02:29:28.992Z,99.99
2023-03-11T02:30:28.953Z,99.99
2023-03-11T02:31:28.975Z,99.99
2023-03-11T02:32:29.006Z,99.99
2023-03-11T02:33:28.942Z,99.99
2023-03-11T02:34:28.914Z,99.99
2023-03-11T02:35:28.899Z,99.99
2023-03-11T02:36:28.886Z,99.99
2023-03-11T02:37:28.880Z,99.99
2023-03-11T02:38:28.877Z,99.99
2023-03-11T02:39:29.056Z,99.99
2023-03-11T02:40:28.868Z,99.99
2023-03-11T02:41:28.993Z,99.99
2023-03-11T02:42:28.830Z,99.99
2023-03-11T02:43:28.835Z,99.99
2023-03-11T02:44:28.811Z,99.99
2023-03-11T02:45:28.785Z,99.99
2023-03-11T02:46:28.780Z,99.99
2023-03-11T02:47:28.810Z,99.99
2023-03-11T02:48:28.751Z,99.99
2023-03-11T02:49:28.741Z,99.99
2023-03-11T02:50:28.746Z,99.99
2023-03-11T02:51:28.718Z,99.99
2023-03-11T02:52:28.750Z,99.99
2023-03-11T02:53:28.732Z,99.99
2023-03-11T02:54:28.689Z,99.99
2023-03-11T02:55:28.676Z,99.99
2023-03-11T02:56:28.671Z,99.99
2023-03-11T02:57:28.664Z,99.99
2023-03-11T02:58:28.638Z,99.99
2023-03-11T02:59:28.650Z,99.99
2023-03-11T03:00:28.616Z,99.99
2023-03-11T03:01:28.606Z,99.99
2023-03-11T03:02:28.616Z,99.99
2023-03-11T03:03:28.687Z,99.99
2023-03-11T03:04:28.648Z,99.99
2023-03-11T03:05:28.615Z,99.99
2023-03-11T03:06:28.600Z,99.99
2023-03-11T03:07:28.540Z,99.99
2023-03-11T03:08:28.528Z,99.99
2023-03-11T03:09:28.528Z,99.99
2023-03-11T03:10:28.516Z,99.99
2023-03-11T03:11:28.529Z,99.99
2023-03-11T03:12:28.494Z,99.99
2023-03-11T03:13:28.479Z,99.99
2023-03-11T03:14:28.465Z,99.99
2023-03-11T03:15:28.654Z,99.99
2023-03-11T03:16:28.522Z,99.99
2023-03-11T03:17:28.610Z,99.99
2023-03-11T03:18:28.418Z,99.99
2023-03-11T03:19:28.412Z,99.99
2023-03-11T03:20:28.397Z,99.99
2023-03-11T03:21:28.390Z,99.99
2023-03-11T03:22:28.372Z,99.99
2023-03-11T03:23:28.400Z,99.99
2023-03-11T03:24:28.354Z,99.99
2023-03-11T03:25:28.346Z,99.99
2023-03-11T03:26:28.330Z,99.99
2023-03-11T03:27:28.322Z,99.99
2023-03-11T03:28:28.318Z,99.99
2023-03-11T03:29:28.319Z,99.99
2023-03-11T03:30:28.294Z,99.99
2023-03-11T03:31:28.339Z,99.99
2023-03-11T03:32:28.297Z,99.99
2023-03-11T03:33:28.259Z,99.99
2023-03-11T03:34:28.248Z,99.99
2023-03-11T03:35:28.233Z,99.99
2023-03-11T03:36:28.610Z,99.99
2023-03-11T03:37:28.233Z,99.99
2023-03-11T03:38:28.213Z,99.99
2023-03-11T03:39:30.519Z,99.99
2023-03-11T03:40:28.182Z,99.99
2023-03-11T03:41:28.170Z,99.99
2023-03-11T03:42:28.176Z,99.99
2023-03-11T03:43:28.164Z,99.99
2023-03-11T03:44:28.140Z,99.99
2023-03-11T03:45:28.132Z,99.99
2023-03-11T03:46:28.117Z,99.99
2023-03-11T03:47:28.124Z,99.99
2023-03-11T03:48:28.121Z,99.99
2023-03-11T03:49:28.084Z,99.99
2023-03-11T03:50:28.071Z,99.99
2023-03-11T03:51:28.067Z,99.99
2023-03-11T03:52:28.058Z,99.99
2023-03-11T03:53:28.044Z,99.99
2023-03-11T03:54:28.046Z,99.99
2023-03-11T03:55:28.021Z,99.99
2023-03-11T03:56:28.004Z,99.99
2023-03-11T03:57:28.000Z,99.99
2023-03-11T03:58:28.008Z,99.99
2023-03-11T03:59:27.981Z,99.99
2023-03-11T04:00:27.987Z,99.99
2023-03-11T04:01:27.958Z,99.99
2023-03-11T04:02:28.034Z,99.99
2023-03-11T04:03:28.121Z,99.99
2023-03-11T04:04:27.927Z,99.99
2023-03-11T04:05:27.919Z,99.99
2023-03-11T04:06:27.943Z,99.99
2023-03-11T04:07:27.926Z,99.99
2023-03-11T04:08:27.886Z,99.99
2023-03-11T04:09:28.027Z,99.99
2023-03-11T04:10:27.877Z,99.99
2023-03-11T04:11:27.898Z,99.99
2023-03-11T04:12:27.896Z,99.99
2023-03-11T04:13:27.848Z,99.99
2023-03-11T04:14:27.827Z,99.99
2023-03-11T04:15:27.808Z,99.99
2023-03-11T04:16:27.847Z,99.99
2023-03-11T04:17:27.786Z,99.99
2023-03-11T04:18:27.778Z,99.99
2023-03-11T04:19:27.802Z,99.99
2023-03-11T04:20:27.750Z,99.99
2023-03-11T04:21:27.753Z,99.99
2023-03-11T04:22:27.736Z,99.99
2023-03-11T04:23:27.721Z,99.99
2023-03-11T04:24:27.723Z,99.99
2023-03-11T04:25:27.700Z,99.99
2023-03-11T04:26:27.688Z,99.99
2023-03-11T04:27:27.673Z,99.99
2023-03-11T04:28:27.680Z,99.99
2023-03-11T04:29:27.669Z,99.99
2023-03-11T04:30:27.643Z,99.99
2023-03-11T04:31:27.635Z,99.99
2023-03-11T04:32:27.654Z,99.99
2023-03-11T04:33:27.626Z,99.99
2023-03-11T04:34:27.602Z,99.99
2023-03-11T04:35:27.688Z,99.99
2023-03-11T04:36:27.575Z,99.99
2023-03-11T04:37:27.579Z,99.99
2023-03-11T04:38:27.567Z,99.99
2023-03-11T04:39:27.538Z,99.99
2023-03-11T04:40:27.543Z,99.99
2023-03-11T04:41:27.526Z,99.99
2023-03-11T04:42:27.572Z,99.99
2023-03-11T04:43:27.496Z,99.99
2023-03-11T04:44:27.486Z,99.99
2023-03-11T04:45:27.486Z,99.99
2023-03-11T04:46:27.539Z,99.99
2023-03-11T04:47:27.453Z,99.99
2023-03-11T04:48:27.443Z,99.99
2023-03-11T04:49:27.638Z,99.99
2023-03-11T04:50:27.442Z,99.99
2023-03-11T04:51:27.435Z,99.99
2023-03-11T04:52:27.406Z,99.99
2023-03-11T04:53:27.388Z,99.99
2023-03-11T04:54:27.388Z,99.99
2023-03-11T04:55:27.381Z,99.99
2023-03-11T04:56:27.373Z,99.99
2023-03-11T04:57:27.348Z,99.99
2023-03-11T04:58:27.330Z,99.99
2023-03-11T04:59:27.324Z,99.99
2023-03-11T05:00:27.330Z,99.99
2023-03-11T05:01:27.350Z,99.99
2023-03-11T05:02:27.288Z,99.99
2023-03-11T05:03:27.307Z,99.99
2023-03-11T05:04:27.311Z,99.99
2023-03-11T05:05:27.269Z,99.99
2023-03-11T05:06:27.245Z,99.99
2023-03-11T05:07:27.255Z,99.99
2023-03-11T05:08:27.313Z,99.99
2023-03-11T05:09:27.234Z,99.99
2023-03-11T05:10:27.219Z,99.99
2023-03-11T05:11:27.189Z,99.99
2023-03-11T05:12:27.182Z,99.99
2023-03-11T05:13:27.312Z,99.99
2023-03-11T05:14:27.177Z,99.99
2023-03-11T05:15:27.201Z,99.99
2023-03-11T05:16:27.181Z,99.99
2023-03-11T05:17:27.126Z,99.99
2023-03-11T05:18:27.132Z,99.99
2023-03-11T05:19:27.120Z,99.99
2023-03-11T05:20:27.099Z,99.99
2023-03-11T05:21:27.083Z,99.99
2023-03-11T05:22:27.067Z,99.99
2023-03-11T05:23:27.083Z,99.99
2023-03-11T05:24:27.065Z,99.99
2023-03-11T05:25:27.034Z,99.99
2023-03-11T05:26:27.039Z,99.99
2023-03-11T05:27:27.018Z,99.99
2023-03-11T05:28:27.015Z,99.99
2023-03-11T05:29:26.999Z,99.99
2023-03-11T05:30:26.983Z,99.99
2023-03-11T05:31:26.998Z,99.99
2023-03-11T05:32:27.097Z,99.99
2023-03-11T05:33:26.965Z,99.99
2023-03-11T05:34:26.953Z,99.99
2023-03-11T05:35:26.975Z,99.99
2023-03-11T05:36:26.920Z,99.99
2023-03-11T05:37:26.910Z,99.99
2023-03-11T05:38:26.913Z,99.99
2023-03-11T05:39:26.940Z,99.99
2023-03-11T05:40:26.883Z,99.99
2023-03-11T05:41:26.990Z,99.99
2023-03-11T05:42:26.858Z,99.99
2023-03-11T05:43:27.153Z,99.99
2023-03-11T05:44:26.852Z,99.99
2023-03-11T05:45:26.832Z,99.99
2023-03-11T05:46:26.856Z,99.99
2023-03-11T05:47:26.803Z,99.99
2023-03-11T05:48:26.794Z,99.99
2023-03-11T05:49:26.800Z,99.99
2023-03-11T05:50:26.777Z,99.99
2023-03-11T05:51:34.549Z,99.99
2023-03-11T05:52:26.757Z,99.99
2023-03-11T05:53:26.763Z,99.99
2023-03-11T05:54:26.733Z,99.99
2023-03-11T05:55:26.784Z,99.99
2023-03-11T05:56:26.716Z,99.99
2023-03-11T05:57:26.694Z,99.99
2023-03-11T05:58:26.760Z,99.99
2023-03-11T05:59:26.673Z,99.99
2023-03-11T06:00:26.666Z,99.99
2023-03-11T06:01:26.655Z,99.99
2023-03-11T06:02:26.644Z,99.99
2023-03-11T06:03:26.630Z,99.99
2023-03-11T06:04:26.771Z,99.99
2023-03-11T06:05:26.684Z,99.99
2023-03-11T06:06:26.606Z,99.99
2023-03-11T06:07:26.587Z,99.99
2023-03-11T06:08:26.608Z,99.99
2023-03-11T06:09:26.564Z,99.99
2023-03-11T06:10:26.564Z,99.99
2023-03-11T06:11:26.565Z,99.99
2023-03-11T06:12:26.537Z,99.99
2023-03-11T06:13:26.539Z,99.99
2023-03-11T06:14:26.514Z,99.99
2023-03-11T06:15:26.495Z,99.99
2023-03-11T06:16:26.573Z,99.99
2023-03-11T06:17:28.170Z,99.99
2023-03-11T06:18:26.491Z,99.99
2023-03-11T06:19:26.460Z,99.99
2023-03-11T06:20:26.444Z,99.99
2023-03-11T06:21:27.500Z,99.99
2023-03-11T06:22:26.429Z,99.99
2023-03-11T06:23:26.439Z,99.99
2023-03-11T06:24:26.402Z,99.99
2023-03-11T06:25:26.397Z,99.99
2023-03-11T06:26:26.382Z,99.99
2023-03-11T06:27:26.393Z,99.99
2023-03-11T06:28:26.386Z,99.99
2023-03-11T06:29:26.345Z,99.99
2023-03-11T06:30:26.340Z,99.99
2023-03-11T06:31:26.646Z,99.99
2023-03-11T06:32:26.397Z,99.99
2023-03-11T06:33:26.323Z,99.99
2023-03-11T06:34:26.299Z,99.99
2023-03-11T06:35:26.279Z,99.99
2023-03-11T06:36:26.292Z,99.99
2023-03-11T06:37:26.262Z,99.99
2023-03-11T06:38:26.252Z,99.99
2023-03-11T06:39:26.241Z,99.99
2023-03-11T06:40:26.242Z,99.99
2023-03-11T06:41:26.251Z,99.99
2023-03-11T06:42:26.238Z,99.99
2023-03-11T06:43:26.272Z,99.99
2023-03-11T06:44:26.204Z,99.99
2023-03-11T06:45:26.186Z,99.99
2023-03-11T06:46:26.188Z,99.93
2023-03-11T06:47:26.165Z,99.98
2023-03-11T06:48:26.150Z,99.99
2023-03-11T06:49:26.155Z,99.93
2023-03-11T06:50:26.122Z,99.82
2023-03-11T06:51:26.114Z,99.99
2023-03-11T06:52:26.118Z,99.72
2023-03-11T06:53:27.039Z,99.51
2023-03-11T06:54:26.116Z,99.20
2023-03-11T06:55:27.044Z,99.30
2023-03-11T06:56:26.074Z,99.30
2023-03-11T06:57:26.054Z,99.41
2023-03-11T06:58:26.057Z,98.93
2023-03-11T06:59:26.034Z,98.57
2023-03-11T07:00:26.032Z,99.20
2023-03-11T07:01:26.068Z,99.46
2023-03-11T07:02:26.079Z,98.74
2023-03-11T07:03:25.976Z,98.16
2023-03-11T07:04:26.068Z,98.26
2023-03-11T07:05:25.985Z,97.70
2023-03-11T07:06:25.975Z,97.07
2023-03-11T07:07:25.937Z,96.24
2023-03-11T07:08:26.560Z,97.17
2023-03-11T07:09:25.980Z,97.07
2023-03-11T07:10:25.924Z,97.38
2023-03-11T07:11:25.909Z,96.34
2023-03-11T07:12:25.886Z,96.03
2023-03-11T07:13:25.880Z,96.34
2023-03-11T07:14:25.875Z,96.34
2023-03-11T07:15:25.906Z,95.83
2023-03-11T07:16:25.897Z,95.30
2023-03-11T07:17:25.875Z,95.62
2023-03-11T07:18:25.814Z,95.40
2023-03-11T07:19:25.854Z,94.95
2023-03-11T07:20:25.807Z,94.43
2023-03-11T07:21:25.797Z,94.37
2023-03-11T07:22:25.789Z,93.35
2023-03-11T07:23:25.767Z,92.38
2023-03-11T07:24:25.797Z,90.08
2023-03-11T07:25:25.855Z,87.59
2023-03-11T07:26:25.731Z,87.49
2023-03-11T07:27:25.732Z,88.53
2023-03-11T07:28:25.712Z,87.35
2023-03-11T07:29:25.698Z,87.04
2023-03-11T07:30:25.683Z,86.47
2023-03-11T07:31:25.855Z,85.17
2023-03-11T07:32:25.697Z,86.25
2023-03-11T07:33:25.666Z,86.25
2023-03-11T07:34:25.650Z,86.70
2023-03-11T07:35:25.637Z,86.88
2023-03-11T07:36:25.664Z,86.68
2023-03-11T07:37:25.609Z,88.54
2023-03-11T07:38:25.673Z,88.69
2023-03-11T07:39:25.610Z,88.38
2023-03-11T07:40:25.711Z,89.31
2023-03-11T07:41:25.563Z,89.31
2023-03-11T07:42:25.566Z,89.15
2023-03-11T07:43:25.545Z,89.25
2023-03-11T07:44:25.542Z,89.46
2023-03-11T07:45:25.526Z,90.60
2023-03-11T07:46:25.589Z,90.70
2023-03-11T07:47:25.535Z,90.60
2023-03-11T07:48:25.492Z,89.87
2023-03-11T07:49:25.492Z,89.67
2023-03-11T07:50:25.469Z,89.31
2023-03-11T07:51:25.459Z,89.62
2023-03-11T07:52:25.459Z,89.42
2023-03-11T07:53:25.433Z,89.00
2023-03-11T07:54:25.425Z,88.65
2023-03-11T07:55:25.413Z,88.46
2023-03-11T07:56:25.412Z,87.04
2023-03-11T07:57:25.427Z,84.87
2023-03-11T07:58:25.389Z,81.82
2023-03-11T07:59:25.393Z,80.24
2023-03-11T08:00:25.393Z,76.67
2023-03-11T08:01:25.347Z,76.84
2023-03-11T08:02:25.412Z,75.12
2023-03-11T08:03:25.396Z,73.91
2023-03-11T08:04:25.316Z,72.58
2023-03-11T08:05:25.302Z,72.92
2023-03-11T08:06:25.322Z,73.16
2023-03-11T08:07:25.645Z,74.36
2023-03-11T08:08:25.264Z,75.60
2023-03-11T08:09:25.259Z,75.43
2023-03-11T08:10:25.242Z,76.29
2023-03-11T08:11:25.232Z,77.28
2023-03-11T08:12:25.249Z,75.84
2023-03-11T08:13:25.237Z,75.77
2023-03-11T08:14:25.205Z,75.77
2023-03-11T08:15:25.216Z,76.60
2023-03-11T08:16:25.177Z,76.43
2023-03-11T08:17:25.186Z,77.29
2023-03-11T08:18:25.158Z,77.64
2023-03-11T08:19:25.167Z,77.53
2023-03-11T08:20:25.137Z,78.25
2023-03-11T08:21:25.141Z,78.36
2023-03-11T08:22:25.142Z,79.43
2023-03-11T08:23:25.179Z,77.87
2023-03-11T08:24:25.089Z,74.98
2023-03-11T08:25:25.091Z,75.09
2023-03-11T08:26:25.085Z,75.60
2023-03-11T08:27:25.068Z,75.70
2023-03-11T08:28:25.050Z,74.88
2023-03-11T08:29:25.052Z,73.23
2023-03-11T08:30:25.025Z,72.06
2023-03-11T08:31:25.071Z,70.49
2023-03-11T08:32:25.061Z,69.09
2023-03-11T08:33:24.998Z,67.03
2023-03-11T08:34:24.997Z,67.03
2023-03-11T08:35:25.582Z,67.49
2023-03-11T08:36:24.982Z,63.51
2023-03-11T08:37:24.943Z,61.66
2023-03-11T08:38:24.935Z,62.23
2023-03-11T08:39:24.922Z,58.29
2023-03-11T08:40:24.935Z,53.78
2023-03-11T08:41:24.993Z,54.99
2023-03-11T08:42:24.911Z,54.13
2023-03-11T08:43:24.877Z,52.56
2023-03-11T08:44:24.870Z,51.34
2023-03-11T08:45:24.881Z,51.34
2023-03-11T08:46:24.992Z,51.42
2023-03-11T08:47:24.849Z,50.58
2023-03-11T08:48:24.837Z,50.81
2023-03-11T08:49:24.820Z,51.75
2023-03-11T08:50:24.812Z,51.42
2023-03-11T08:51:24.841Z,50.85
2023-03-11T08:52:24.776Z,53.42
2023-03-11T08:53:24.764Z,56.20
2023-03-11T08:54:24.906Z,57.20
2023-03-11T08:55:24.750Z,59.09
2023-03-11T08:56:24.748Z,60.06
2023-03-11T08:57:24.737Z,61.25
2023-03-11T08:58:24.711Z,63.25
2023-03-11T08:59:24.708Z,64.10
2023-03-11T09:00:24.697Z,64.01
2023-03-11T09:01:24.692Z,62.51
2023-03-11T09:02:24.676Z,63.46
2023-03-11T09:03:24.663Z,63.90
2023-03-11T09:04:24.641Z,63.79
2023-03-11T09:05:24.630Z,63.40
2023-03-11T09:06:25.594Z,61.86
2023-03-11T09:07:24.632Z,61.20
2023-03-11T09:08:24.592Z,62.52
2023-03-11T09:09:24.585Z,64.19
2023-03-11T09:10:24.578Z,64.56
2023-03-11T09:11:24.590Z,65.75
2023-03-11T09:12:24.581Z,67.33
2023-03-11T09:13:24.544Z,68.01
2023-03-11T09:14:24.534Z,69.41
2023-03-11T09:15:24.552Z,69.93
2023-03-11T09:16:24.591Z,70.54
2023-03-11T09:17:24.517Z,70.27
2023-03-11T09:18:24.498Z,70.03
2023-03-11T09:19:24.496Z,69.83
2023-03-11T09:20:24.462Z,68.49
2023-03-11T09:21:24.457Z,67.39
2023-03-11T09:22:24.439Z,67.29
2023-03-11T09:23:24.470Z,67.81
2023-03-11T09:24:24.430Z,67.25
2023-03-11T09:25:24.575Z,68.21
2023-03-11T09:26:24.400Z,68.32
2023-03-11T09:27:25.088Z,68.01
2023-03-11T09:28:24.385Z,68.86
2023-03-11T09:29:24.386Z,68.96
2023-03-11T09:30:24.373Z,69.41
2023-03-11T09:31:24.402Z,69.96
2023-03-11T09:32:24.484Z,70.57
2023-03-11T09:33:24.360Z,70.72
2023-03-11T09:34:24.322Z,70.92
2023-03-11T09:35:24.337Z,71.95
2023-03-11T09:36:24.287Z,72.19
2023-03-11T09:37:24.371Z,73.67
2023-03-11T09:38:25.059Z,73.98
2023-03-11T09:39:24.309Z,73.36
2023-03-11T09:40:24.350Z,73.91
2023-03-11T09:41:24.245Z,74.95
2023-03-11T09:42:24.225Z,74.95
2023-03-11T09:43:24.266Z,73.67
2023-03-11T09:44:24.201Z,73.36
2023-03-11T09:45:24.192Z,74.67
2023-03-11T09:46:24.184Z,73.77
2023-03-11T09:47:24.176Z,71.85
2023-03-11T09:48:24.159Z,71.16
2023-03-11T09:49:24.173Z,71.41
2023-03-11T09:50:24.272Z,71.95
2023-03-11T09:51:24.130Z,72.30
2023-03-11T09:52:24.116Z,72.88
2023-03-11T09:53:24.134Z,72.16
2023-03-11T09:54:24.135Z,70.14
2023-03-11T09:55:24.126Z,68.37
2023-03-11T09:56:24.073Z,67.20
2023-03-11T09:57:24.067Z,66.72
2023-03-11T09:58:24.069Z,67.68
2023-03-11T09:59:24.034Z,67.19
2023-03-11T10:00:24.096Z,68.43
2023-03-11T10:01:24.015Z,68.12
2023-03-11T10:02:24.181Z,68.12
2023-03-11T10:03:24.143Z,68.08
2023-03-11T10:04:23.982Z,67.36
2023-03-11T10:05:23.969Z,67.47
2023-03-11T10:06:23.964Z,67.65
2023-03-11T10:07:24.092Z,66.51
2023-03-11T10:08:23.953Z,66.85
2023-03-11T10:09:23.922Z,66.69
2023-03-11T10:10:23.919Z,66.51
2023-03-11T10:11:23.944Z,67.30
2023-03-11T10:12:23.902Z,68.43
2023-03-11T10:13:23.927Z,69.04
2023-03-11T10:14:23.874Z,69.28
2023-03-11T10:15:23.861Z,69.18
2023-03-11T10:16:23.944Z,67.71
2023-03-11T10:17:23.839Z,68.02
2023-03-11T10:18:23.850Z,68.53
2023-03-11T10:19:23.816Z,69.76
2023-03-11T10:20:23.797Z,67.50
2023-03-11T10:21:25.582Z,67.09
2023-03-11T10:22:23.797Z,68.77
2023-03-11T10:23:23.772Z,68.98
2023-03-11T10:24:23.756Z,67.97
2023-03-11T10:25:23.766Z,68.93
2023-03-11T10:26:23.732Z,69.24
2023-03-11T10:27:23.762Z,69.48
2023-03-11T10:28:23.714Z,69.45
2023-03-11T10:29:23.707Z,68.46
2023-03-11T10:30:23.707Z,67.30
2023-03-11T10:31:23.703Z,64.63
2023-03-11T10:32:23.727Z,65.00
2023-03-11T10:33:23.671Z,66.38
2023-03-11T10:34:23.663Z,64.73
2023-03-11T10:35:23.642Z,64.97
2023-03-11T10:36:23.711Z,66.34
2023-03-11T10:37:23.621Z,67.43
2023-03-11T10:38:24.132Z,68.08
2023-03-11T10:39:23.602Z,69.35
2023-03-11T10:40:24.089Z,69.21
2023-03-11T10:41:23.576Z,69.04
2023-03-11T10:42:23.614Z,69.21
2023-03-11T10:43:23.598Z,68.67
2023-03-11T10:44:23.543Z,64.51
2023-03-11T10:45:23.583Z,62.96
2023-03-11T10:46:23.590Z,62.07
2023-03-11T10:47:23.585Z,62.54
2023-03-11T10:48:23.515Z,63.00
2023-03-11T10:49:23.488Z,64.09
2023-03-11T10:50:23.526Z,65.08
2023-03-11T10:51:24.097Z,66.75
2023-03-11T10:52:23.477Z,67.40
2023-03-11T10:53:23.442Z,68.56
2023-03-11T10:54:23.442Z,69.21
2023-03-11T10:55:23.421Z,69.93
2023-03-11T10:56:23.407Z,68.73
2023-03-11T10:57:23.447Z,69.72
2023-03-11T10:58:23.407Z,70.37
2023-03-11T10:59:23.396Z,70.30
2023-03-11T11:00:23.366Z,70.82
2023-03-11T11:01:23.399Z,70.30
2023-03-11T11:02:23.358Z,70.09
2023-03-11T11:03:23.349Z,70.61
2023-03-11T11:04:23.375Z,71.16
2023-03-11T11:05:23.346Z,71.98
2023-03-11T11:06:23.311Z,72.61
2023-03-11T11:07:23.283Z,71.85
2023-03-11T11:08:23.281Z,72.06
2023-03-11T11:09:25.118Z,70.95
2023-03-11T11:10:23.259Z,70.75
2023-03-11T11:11:23.261Z,70.85
2023-03-11T11:12:23.225Z,70.95
2023-03-11T11:13:24.110Z,70.57
2023-03-11T11:14:23.216Z,69.96
2023-03-11T11:15:23.217Z,70.27
2023-03-11T11:16:23.311Z,70.13
2023-03-11T11:17:23.177Z,69.89
2023-03-11T11:18:23.175Z,68.96
2023-03-11T11:19:23.151Z,68.86
2023-03-11T11:20:23.214Z,68.66
2023-03-11T11:21:23.147Z,69.38
2023-03-11T11:22:23.124Z,69.72
2023-03-11T11:23:23.116Z,69.34
2023-03-11T11:24:23.098Z,69.99
2023-03-11T11:25:23.110Z,70.33
2023-03-11T11:26:23.157Z,70.95
2023-03-11T11:27:23.352Z,71.67
2023-03-11T11:28:23.132Z,71.26
2023-03-11T11:29:23.042Z,71.81
2023-03-11T11:30:23.048Z,71.37
2023-03-11T11:31:23.044Z,71.16
2023-03-11T11:32:23.042Z,70.92
2023-03-11T11:33:23.007Z,70.82
2023-03-11T11:34:23.189Z,69.31
2023-03-11T11:35:23.085Z,67.77
2023-03-11T11:36:22.986Z,67.25
2023-03-11T11:37:23.024Z,66.71
2023-03-11T11:38:23.011Z,65.14
2023-03-11T11:39:22.942Z,63.91
2023-03-11T11:40:22.935Z,63.27
2023-03-11T11:41:22.921Z,62.85
2023-03-11T11:42:22.900Z,63.17
2023-03-11T11:43:22.900Z,63.47
2023-03-11T11:44:22.918Z,63.20
2023-03-11T11:45:22.862Z,64.07
2023-03-11T11:46:22.890Z,64.00
2023-03-11T11:47:22.867Z,64.51
2023-03-11T11:48:22.831Z,66.19
2023-03-11T11:49:22.821Z,65.25
2023-03-11T11:50:22.824Z,62.80
2023-03-11T11:51:22.803Z,61.46
2023-03-11T11:52:29.998Z,60.72
2023-03-11T11:53:22.797Z,60.00
2023-03-11T11:54:22.757Z,60.44
2023-03-11T11:55:22.763Z,61.11
2023-03-11T11:56:22.736Z,62.27
2023-03-11T11:57:22.724Z,63.67
2023-03-11T11:58:22.720Z,63.76
2023-03-11T11:59:22.733Z,64.28
2023-03-11T12:00:22.694Z,64.03
2023-03-11T12:01:22.688Z,65.30
2023-03-11T12:02:22.672Z,65.74
2023-03-11T12:03:22.751Z,66.49
2023-03-11T12:04:22.653Z,67.32
2023-03-11T12:05:22.733Z,67.63
2023-03-11T12:06:22.624Z,67.21
2023-03-11T12:07:22.632Z,67.32
2023-03-11T12:08:22.641Z,68.86
2023-03-11T12:09:22.595Z,68.86
2023-03-11T12:10:24.000Z,68.35
2023-03-11T12:11:22.573Z,68.66
2023-03-11T12:12:22.590Z,68.21
2023-03-11T12:13:22.555Z,67.21
2023-03-11T12:14:22.533Z,67.63
2023-03-11T12:15:22.523Z,67.60
2023-03-11T12:16:22.530Z,67.29
2023-03-11T12:17:22.518Z,67.83
2023-03-11T12:18:22.490Z,67.93
2023-03-11T12:19:22.498Z,68.35
2023-03-11T12:20:22.465Z,67.25
2023-03-11T12:21:22.464Z,66.27
2023-03-11T12:22:22.456Z,65.23
2023-03-11T12:23:22.434Z,64.62
2023-03-11T12:24:22.434Z,64.11
2023-03-11T12:25:22.466Z,64.54
2023-03-11T12:26:22.403Z,64.89
2023-03-11T12:27:22.410Z,64.78
2023-03-11T12:28:22.652Z,64.58
2023-03-11T12:29:22.364Z,64.78
2023-03-11T12:30:22.396Z,65.22
2023-03-11T12:31:22.423Z,65.53
2023-03-11T12:32:22.378Z,65.46
2023-03-11T12:33:22.336Z,65.28
2023-03-11T12:34:22.312Z,66.31
2023-03-11T12:35:22.324Z,66.94
2023-03-11T12:36:22.295Z,67.76
2023-03-11T12:37:22.458Z,68.00
2023-03-11T12:38:22.271Z,67.69
2023-03-11T12:39:22.262Z,67.41
2023-03-11T12:40:22.254Z,68.85
2023-03-11T12:41:22.237Z,68.99
2023-03-11T12:42:22.242Z,69.64
2023-03-11T12:43:22.221Z,69.33
2023-03-11T12:44:22.230Z,68.27
2023-03-11T12:45:22.209Z,68.48
2023-03-11T12:46:22.204Z,68.71
2023-03-11T12:47:22.185Z,69.12
2023-03-11T12:48:22.175Z,68.82
2023-03-11T12:49:22.153Z,68.95
2023-03-11T12:50:22.132Z,68.92
2023-03-11T12:51:22.146Z,69.16
2023-03-11T12:52:22.115Z,68.85